Time;durP1;ratioP1;P1;durP2;ratioP2;P2;SDS_P1;SDS_P2;PMS_P1;PMS_P2;Temp;Humidity;BMP_temperature;BMP_pressure;BME280_temperature;BME280_humidity;BME280_pressure;Samples;Min_cycle;Max_cycle;Signal;HPM_P1;HPM_P2
2021/08/23 00:00:06;;;;;;;3.47;3.17;;;;;;;18.07;64.90;100485.03;1757231;81;25597;-74
2021/08/23 00:02:35;;;;;;;3.22;2.72;;;;;;;18.08;64.92;100471.55;1757238;81;25616;-74
2021/08/23 00:05:03;;;;;;;3.22;2.92;;;;;;;18.09;64.73;100474.52;1757239;81;25856;-74
2021/08/23 00:07:30;;;;;;;4.62;3.10;;;;;;;18.10;64.71;100469.28;1757330;81;25582;-74
2021/08/23 00:09:57;;;;;;;19.27;3.67;;;;;;;18.11;64.54;100468.89;1757305;81;27435;-73
2021/08/23 00:12:24;;;;;;;4.42;3.00;;;;;;;18.10;64.48;100467.33;1757221;81;25611;-73
2021/08/23 00:14:51;;;;;;;3.87;3.35;;;;;;;18.12;64.44;100472.45;1758438;81;25491;-73
2021/08/23 00:17:18;;;;;;;3.30;3.00;;;;;;;18.14;64.40;100472.09;1762497;81;25630;-73
2021/08/23 00:19:44;;;;;;;3.40;3.08;;;;;;;18.15;64.26;100479.95;1762728;81;25638;-73
2021/08/23 00:25:00;;;;;;;3.98;3.37;;;;;;;18.17;64.13;100468.65;1762524;81;25555;-74
2021/08/23 00:27:30;;;;;;;3.83;2.75;;;;;;;18.20;64.19;100470.65;1762797;81;25489;-80
2021/08/23 00:29:57;;;;;;;5.85;3.17;;;;;;;18.22;64.19;100471.11;1762585;81;25398;-75
2021/08/23 00:32:24;;;;;;;6.20;2.80;;;;;;;18.23;64.20;100475.42;1762731;80;25554;-74
2021/08/23 00:34:51;;;;;;;3.50;3.12;;;;;;;18.22;64.17;100480.11;1762630;81;27102;-73
2021/08/23 00:37:18;;;;;;;4.25;3.70;;;;;;;18.25;64.17;100478.03;1762591;81;25828;-73
2021/08/23 00:39:44;;;;;;;3.25;2.85;;;;;;;18.27;64.20;100470.25;1762680;81;25442;-74
2021/08/23 00:42:11;;;;;;;4.72;2.90;;;;;;;18.28;64.29;100474.56;1762599;81;25985;-75
2021/08/23 00:44:40;;;;;;;4.10;3.20;;;;;;;18.31;64.40;100464.85;1762592;81;25442;-73
2021/08/23 00:47:07;;;;;;;3.70;3.40;;;;;;;18.32;64.50;100469.74;1762805;81;27356;-73
2021/08/23 00:49:35;;;;;;;3.50;3.20;;;;;;;18.33;64.49;100472.72;1762541;81;25412;-74
2021/08/23 00:52:07;;;;;;;5.00;3.10;;;;;;;18.33;64.56;100471.34;1762580;81;25569;-74
2021/08/23 00:54:35;;;;;;;4.72;3.27;;;;;;;18.31;64.68;100477.17;1762590;81;25684;-74
2021/08/23 00:57:05;;;;;;;4.17;3.52;;;;;;;18.31;64.85;100479.12;1762655;81;25597;-73
2021/08/23 00:59:36;;;;;;;4.50;3.40;;;;;;;18.31;65.05;100473.06;1761239;81;27354;-73
2021/08/23 01:02:32;;;;;;;4.17;3.30;;;;;;;18.29;65.14;100474.00;1738765;81;25544;-73
2021/08/23 01:05:15;;;;;;;4.33;3.67;;;;;;;18.27;65.24;100468.88;1762693;81;25463;-73
2021/08/23 01:07:49;;;;;;;5.12;3.45;;;;;;;18.26;65.49;100470.02;1762721;81;25541;-74
2021/08/23 01:10:24;;;;;;;4.45;2.90;;;;;;;18.23;65.47;100483.05;1753557;81;25470;-73
2021/08/23 01:12:52;;;;;;;3.50;3.15;;;;;;;18.21;65.57;100475.77;1762589;81;27402;-73
2021/08/23 01:15:18;;;;;;;5.40;3.00;;;;;;;18.19;65.60;100481.41;1762360;81;25760;-73
2021/08/23 01:17:44;;;;;;;5.17;3.87;;;;;;;18.16;65.59;100475.27;1762652;81;25696;-73
2021/08/23 01:20:12;;;;;;;4.80;3.83;;;;;;;18.12;65.75;100482.03;1762483;81;25833;-73
2021/08/23 01:22:46;;;;;;;4.65;3.45;;;;;;;18.08;65.87;100477.02;1762668;81;25407;-71
2021/08/23 01:25:21;;;;;;;4.78;3.22;;;;;;;18.03;66.03;100470.45;1762605;81;27334;-71
2021/08/23 01:28:20;;;;;;;3.40;3.10;;;;;;;17.97;66.07;100474.05;1762096;81;25893;-71
2021/08/23 01:31:11;;;;;;;6.12;3.72;;;;;;;17.93;66.13;100474.55;1762666;81;25581;-71
2021/08/23 01:33:38;;;;;;;6.58;3.92;;;;;;;17.87;66.33;100472.63;1762521;81;26496;-71
2021/08/23 01:36:05;;;;;;;4.78;3.30;;;;;;;17.84;66.29;100476.63;1762692;81;25577;-70
2021/08/23 01:38:32;;;;;;;3.30;3.00;;;;;;;17.81;66.40;100480.06;1762665;81;28205;-71
2021/08/23 01:41:05;;;;;;;4.33;3.17;;;;;;;17.79;66.51;100484.52;1738837;81;25453;-71
2021/08/23 01:43:33;;;;;;;4.87;3.50;;;;;;;17.77;66.64;100480.56;1762788;81;25555;-77
2021/08/23 01:46:00;;;;;;;9.00;4.45;;;;;;;17.76;66.73;100485.24;1762758;81;26386;-72
2021/08/23 01:48:27;;;;;;;4.75;3.55;;;;;;;17.73;66.71;100489.47;1762736;81;25654;-71
2021/08/23 01:50:53;;;;;;;3.50;3.17;;;;;;;17.71;66.88;100481.41;1762829;81;27356;-71
2021/08/23 01:53:20;;;;;;;5.92;3.90;;;;;;;17.68;67.04;100475.27;1762783;81;25455;-71
2021/08/23 01:55:47;;;;;;;5.58;3.52;;;;;;;17.63;66.97;100472.21;1762670;81;25374;-71
2021/08/23 01:58:16;;;;;;;4.87;3.50;;;;;;;17.62;66.95;100473.92;1762719;81;26199;-71
2021/08/23 02:00:43;;;;;;;6.22;3.95;;;;;;;17.59;66.95;100470.52;1762690;81;25420;-71
2021/08/23 02:03:09;;;;;;;4.80;3.72;;;;;;;17.57;67.05;100477.74;1762736;81;27433;-71
2021/08/23 02:05:36;;;;;;;5.92;3.90;;;;;;;17.54;67.18;100472.39;1762636;81;25535;-72
2021/08/23 02:08:04;;;;;;;6.60;3.37;;;;;;;17.51;67.24;100477.19;1762796;81;25433;-71
2021/08/23 02:10:31;;;;;;;5.67;3.67;;;;;;;17.49;67.28;100487.69;1739188;81;25710;-71
2021/08/23 02:12:58;;;;;;;3.92;3.62;;;;;;;17.47;67.28;100474.13;1762785;81;25686;-71
2021/08/23 02:15:24;;;;;;;4.70;3.85;;;;;;;17.45;67.50;100471.77;1762575;81;27340;-71
2021/08/23 02:17:50;;;;;;;4.10;3.47;;;;;;;17.43;67.50;100467.79;1762631;81;25605;-71
2021/08/23 02:20:19;;;;;;;6.92;3.80;;;;;;;17.39;67.68;100468.28;1762780;81;25546;-70
2021/08/23 02:22:46;;;;;;;6.87;4.15;;;;;;;17.36;67.78;100479.33;1762719;81;25682;-71
2021/08/23 02:25:19;;;;;;;5.37;3.60;;;;;;;17.33;67.88;100478.66;1762667;80;25550;-71
2021/08/23 02:27:43;;;;;;;4.35;3.95;;;;;;;17.27;67.94;100474.02;1762283;81;27529;-69
2021/08/23 02:30:13;;;;;;;4.92;3.80;;;;;;;17.24;68.06;100467.88;1762747;81;25396;-72
2021/08/23 02:32:40;;;;;;;6.85;3.87;;;;;;;17.21;68.18;100474.63;1762684;81;25468;-70
2021/08/23 02:35:08;;;;;;;3.87;3.50;;;;;;;17.17;68.32;100480.78;1762613;81;25669;-70
2021/08/23 02:37:34;;;;;;;4.70;4.15;;;;;;;17.16;68.36;100471.56;1762704;81;25629;-71
2021/08/23 02:40:01;;;;;;;7.47;4.40;;;;;;;17.14;68.39;100471.91;1762709;81;27279;-71
2021/08/23 02:42:28;;;;;;;8.23;4.20;;;;;;;17.13;68.56;100477.17;1762600;81;25432;-71
2021/08/23 02:44:54;;;;;;;6.37;4.35;;;;;;;17.11;68.70;100478.10;1762641;81;25388;-71
2021/08/23 02:47:21;;;;;;;5.20;4.30;;;;;;;17.09;68.66;100479.58;1762679;81;25706;-71
2021/08/23 02:49:48;;;;;;;6.45;3.50;;;;;;;17.06;68.91;100486.55;1762753;81;25429;-71
2021/08/23 02:52:15;;;;;;;5.00;4.08;;;;;;;17.04;68.94;100480.61;1762661;81;27376;-71
2021/08/23 02:54:41;;;;;;;3.80;3.50;;;;;;;17.02;69.03;100478.80;1762553;81;25561;-71
2021/08/23 02:57:07;;;;;;;5.62;3.65;;;;;;;17.02;69.09;100474.70;1762750;81;25597;-71
2021/08/23 02:59:34;;;;;;;4.78;4.30;;;;;;;16.99;69.01;100472.11;1738775;81;25621;-72
2021/08/23 03:02:01;;;;;;;4.55;4.12;;;;;;;16.98;69.10;100460.16;1762713;81;25569;-72
2021/08/23 03:04:27;;;;;;;6.62;3.87;;;;;;;16.97;69.13;100458.56;1762732;81;28205;-72
2021/08/23 03:06:53;;;;;;;4.35;3.90;;;;;;;16.95;69.17;100443.09;1762574;81;25556;-72
2021/08/23 03:09:19;;;;;;;6.92;4.30;;;;;;;16.91;69.14;100447.09;1762701;81;25443;-72
2021/08/23 03:11:46;;;;;;;5.50;3.58;;;;;;;16.88;69.14;100444.27;1762714;81;26299;-72
2021/08/23 03:14:12;;;;;;;4.50;3.80;;;;;;;16.85;69.17;100432.09;1762517;81;25553;-72
2021/08/23 03:16:39;;;;;;;7.67;3.80;;;;;;;16.81;69.19;100422.40;1749785;81;27336;-73
2021/08/23 03:19:05;;;;;;;6.92;3.92;;;;;;;16.79;69.17;100413.77;1738207;82;25504;-71
2021/08/23 03:21:32;;;;;;;5.35;3.87;;;;;;;16.77;69.17;100402.40;1738115;82;25640;-72
2021/08/23 03:23:58;;;;;;;4.17;3.77;;;;;;;16.77;69.21;100397.48;1738196;82;25702;-72
2021/08/23 03:26:25;;;;;;;4.97;3.87;;;;;;;16.73;69.15;100391.14;1738180;82;25416;-72
2021/08/23 03:28:52;;;;;;;4.97;4.05;;;;;;;16.70;69.13;100398.11;1719143;82;27466;-72
2021/08/23 03:31:18;;;;;;;4.55;4.08;;;;;;;16.70;69.18;100409.03;1738067;82;25530;-72
2021/08/23 03:33:45;;;;;;;5.00;4.00;;;;;;;16.68;69.15;100411.88;1719292;82;25733;-72
2021/08/23 03:36:12;;;;;;;5.50;3.75;;;;;;;16.67;69.14;100423.37;1719137;82;25716;-71
2021/08/23 03:38:39;;;;;;;5.85;3.75;;;;;;;16.66;69.12;100439.53;1738184;82;25564;-72
2021/08/23 03:41:05;;;;;;;5.03;4.00;;;;;;;16.66;69.04;100451.03;1738260;82;27319;-71
2021/08/23 03:43:31;;;;;;;4.72;4.25;;;;;;;16.65;69.08;100451.58;1738081;82;25620;-72
2021/08/23 03:45:58;;;;;;;4.78;4.10;;;;;;;16.66;69.21;100463.32;1738117;82;25563;-72
2021/08/23 03:48:24;;;;;;;4.62;3.90;;;;;;;16.66;69.21;100457.86;1738163;82;25854;-73
2021/08/23 03:50:51;;;;;;;5.85;3.85;;;;;;;16.67;69.23;100462.98;1738035;82;25388;-72
2021/08/23 03:53:17;;;;;;;5.65;3.95;;;;;;;16.68;69.20;100459.09;1738134;82;27331;-73
2021/08/23 03:55:44;;;;;;;10.55;4.10;;;;;;;16.68;69.15;100456.36;1738108;82;25614;-73
2021/08/23 03:58:10;;;;;;;3.95;3.45;;;;;;;16.70;69.17;100473.22;1738079;82;25586;-73
2021/08/23 04:00:37;;;;;;;5.78;3.62;;;;;;;16.71;69.33;100467.95;1738113;82;25699;-72
2021/08/23 04:03:03;;;;;;;4.80;4.28;;;;;;;16.72;69.32;100462.73;1738211;82;25606;-70
2021/08/23 04:05:29;;;;;;;4.75;3.80;;;;;;;16.73;69.35;100462.16;1738074;82;27529;-70
2021/08/23 04:07:56;;;;;;;4.78;3.98;;;;;;;16.75;69.43;100463.96;1738103;82;25567;-69
2021/08/23 04:10:22;;;;;;;3.77;3.22;;;;;;;16.77;69.35;100458.39;1738051;82;25547;-72
2021/08/23 04:12:49;;;;;;;4.10;3.65;;;;;;;16.77;69.29;100465.22;1738108;82;25674;-69
2021/08/23 04:15:16;;;;;;;5.15;4.22;;;;;;;16.80;69.30;100471.91;1719299;82;25509;-69
2021/08/23 04:17:42;;;;;;;9.43;3.72;;;;;;;16.82;69.44;100464.16;1737990;82;27412;-69
2021/08/23 04:20:12;;;;;;;9.00;3.95;;;;;;;16.84;69.41;100461.93;1738068;82;25726;-70
2021/08/23 04:22:40;;;;;;;4.35;3.83;;;;;;;16.86;69.19;100456.12;1738107;82;25638;-71
2021/08/23 04:25:08;;;;;;;6.72;4.10;;;;;;;16.87;69.20;100453.02;1737997;82;26306;-72
2021/08/23 04:27:35;;;;;;;4.87;3.80;;;;;;;16.89;68.98;100449.94;1738159;82;25654;-72
2021/08/23 04:30:01;;;;;;;5.62;3.90;;;;;;;16.90;68.92;100451.54;1738133;82;27329;-72
2021/08/23 04:32:28;;;;;;;6.40;3.83;;;;;;;16.90;69.03;100445.50;1738046;82;25697;-71
2021/08/23 04:34:55;;;;;;;5.78;4.20;;;;;;;16.92;68.96;100445.15;1738173;82;25466;-71
2021/08/23 04:37:21;;;;;;;6.00;4.03;;;;;;;16.95;69.09;100437.63;1738074;82;26542;-71
2021/08/23 04:39:48;;;;;;;5.60;4.22;;;;;;;16.93;68.88;100426.27;1738081;82;25625;-71
2021/08/23 04:42:14;;;;;;;6.85;4.25;;;;;;;16.93;68.91;100426.27;1738123;82;27564;-71
2021/08/23 04:44:43;;;;;;;3.92;3.33;;;;;;;16.94;68.92;100418.27;1737959;82;25385;-71
2021/08/23 04:47:10;;;;;;;5.00;3.42;;;;;;;16.95;68.98;100409.73;1737915;82;25448;-71
2021/08/23 04:49:37;;;;;;;5.78;3.92;;;;;;;16.96;68.94;100406.45;1738063;82;26571;-71
2021/08/23 04:52:04;;;;;;;5.10;4.17;;;;;;;16.97;69.11;100406.65;1738131;82;25633;-71
2021/08/23 04:54:30;;;;;;;4.92;4.42;;;;;;;16.97;69.13;100399.82;1737960;82;27167;-71
2021/08/23 04:56:56;;;;;;;7.47;3.90;;;;;;;16.98;69.23;100404.15;1719162;82;25648;-71
2021/08/23 04:59:23;;;;;;;4.08;3.67;;;;;;;17.01;69.22;100410.84;1738124;82;25570;-71
2021/08/23 05:01:49;;;;;;;5.42;3.92;;;;;;;17.01;69.25;100407.55;1737950;82;25715;-71
2021/08/23 05:04:15;;;;;;;6.80;4.08;;;;;;;17.02;69.27;100415.95;1738100;82;25441;-71
2021/08/23 05:06:42;;;;;;;4.78;3.80;;;;;;;17.04;69.34;100415.03;1738002;82;27589;-71
2021/08/23 05:09:08;;;;;;;4.40;4.00;;;;;;;17.07;69.38;100422.53;1737969;82;25635;-71
2021/08/23 05:11:37;;;;;;;7.30;4.25;;;;;;;17.10;69.45;100427.31;1738055;82;25614;-71
2021/08/23 05:14:04;;;;;;;5.65;3.60;;;;;;;17.12;69.44;100435.16;1738197;82;25706;-72
2021/08/23 05:16:31;;;;;;;5.95;4.40;;;;;;;17.15;69.51;100438.56;1738004;81;25491;-71
2021/08/23 05:18:57;;;;;;;4.90;4.12;;;;;;;17.16;69.39;100436.03;1738105;82;27503;-71
2021/08/23 05:21:24;;;;;;;4.95;4.25;;;;;;;17.20;69.54;100425.20;1737944;82;25615;-71
2021/08/23 05:23:52;;;;;;;8.83;5.42;;;;;;;17.22;69.51;100425.08;1738070;82;25409;-71
2021/08/23 05:26:18;;;;;;;6.20;4.45;;;;;;;17.25;69.54;100416.77;1737095;82;25667;-71
2021/08/23 05:28:45;;;;;;;6.12;4.50;;;;;;;17.28;69.58;100425.61;1738153;82;25426;-71
2021/08/23 05:31:11;;;;;;;6.72;3.83;;;;;;;17.30;69.50;100421.97;1738149;82;27505;-71
2021/08/23 05:33:38;;;;;;;5.62;3.90;;;;;;;17.34;69.51;100435.15;1731693;82;25656;-71
2021/08/23 05:36:05;;;;;;;11.10;4.37;;;;;;;17.38;69.73;100445.59;1737908;82;25724;-71
2021/08/23 05:38:31;;;;;;;6.47;4.25;;;;;;;17.43;69.79;100444.55;1719204;82;25754;-71
2021/08/23 05:40:59;;;;;;;9.88;4.70;;;;;;;17.48;69.65;100453.86;1738097;82;25540;-70
2021/08/23 05:43:26;;;;;;;6.75;4.67;;;;;;;17.51;69.58;100450.42;1737986;82;27399;-70
2021/08/23 05:45:52;;;;;;;6.90;4.60;;;;;;;17.53;69.56;100447.55;1736679;82;25840;-70
2021/08/23 05:48:18;;;;;;;5.85;3.95;;;;;;;17.58;69.48;100452.55;1737058;82;25459;-73
2021/08/23 05:50:44;;;;;;;6.47;4.72;;;;;;;17.59;69.47;100445.36;1738007;82;25604;-74
2021/08/23 05:53:12;;;;;;;7.40;4.65;;;;;;;17.63;69.57;100443.49;1719372;82;25460;-72
2021/08/23 05:55:40;;;;;;;6.17;4.58;;;;;;;17.68;69.60;100445.97;1737614;82;27330;-72
2021/08/23 05:58:07;;;;;;;4.80;4.33;;;;;;;17.73;69.59;100443.55;1737437;82;25614;-69
2021/08/23 06:00:33;;;;;;;5.58;4.00;;;;;;;17.79;69.66;100447.58;1731874;82;25798;-69
2021/08/23 06:03:00;;;;;;;4.97;3.95;;;;;;;17.84;69.59;100450.08;1723344;82;25711;-69
2021/08/23 06:05:30;;;;;;;6.17;4.22;;;;;;;17.89;69.45;100452.58;1737075;81;25677;-71
2021/08/23 06:07:56;;;;;;;5.83;4.30;;;;;;;17.94;69.48;100447.97;1735686;81;27505;-71
2021/08/23 06:10:28;;;;;;;8.00;4.58;;;;;;;17.99;69.44;100447.70;1748298;80;25598;-73
2021/08/23 06:12:58;;;;;;;5.90;4.70;;;;;;;18.03;69.28;100452.66;1714228;82;25769;-68
2021/08/23 06:15:30;;;;;;;9.88;4.87;;;;;;;18.06;69.30;100445.12;1689968;82;26252;-69
2021/08/23 06:17:56;;;;;;;6.33;4.60;;;;;;;18.10;69.19;100444.06;1738121;81;25689;-69
2021/08/23 06:20:23;;;;;;;5.45;4.58;;;;;;;18.16;69.20;100442.41;1758816;81;27413;-69
2021/08/23 06:22:50;;;;;;;6.47;5.50;;;;;;;18.18;69.18;100431.89;1759320;81;25641;-70
2021/08/23 06:25:18;;;;;;;8.90;5.08;;;;;;;18.24;69.18;100429.11;1759299;81;25660;-69
2021/08/23 06:27:44;;;;;;;5.55;4.83;;;;;;;18.29;69.29;100430.20;1759404;81;25631;-70
2021/08/23 06:30:12;;;;;;;6.62;4.83;;;;;;;18.34;69.21;100425.81;1757874;81;25771;-69
2021/08/23 06:32:39;;;;;;;7.15;4.92;;;;;;;18.40;69.05;100428.47;1716995;82;27319;-68
2021/08/23 06:35:07;;;;;;;7.10;5.37;;;;;;;18.43;68.98;100425.02;1714454;82;25772;-69
2021/08/23 06:37:35;;;;;;;7.67;5.50;;;;;;;18.50;69.25;100424.96;1701084;82;25777;-75
2021/08/23 06:40:07;;;;;;;7.67;5.17;;;;;;;18.58;69.20;100428.85;1716179;81;25824;-77
2021/08/23 06:42:30;;;;;;;9.55;5.22;;;;;;;18.65;68.71;100431.73;1729597;82;25721;-74
2021/08/23 06:44:56;;;;;;;6.92;5.12;;;;;;;18.65;68.46;100430.36;1753237;81;28089;-74
2021/08/23 06:47:23;;;;;;;7.28;5.37;;;;;;;18.70;68.44;100429.29;1758098;81;25810;-72
2021/08/23 06:49:50;;;;;;;7.83;4.95;;;;;;;18.73;68.10;100442.27;1758257;81;26400;-75
2021/08/23 06:52:17;;;;;;;6.17;5.22;;;;;;;18.75;67.85;100437.80;1757460;81;25724;-73
2021/08/23 06:54:43;;;;;;;5.28;4.78;;;;;;;18.77;67.83;100437.64;1757054;81;25690;-74
2021/08/23 06:57:10;;;;;;;7.47;5.20;;;;;;;18.82;67.56;100440.68;1757830;81;27397;-73
2021/08/23 06:59:36;;;;;;;7.47;5.87;;;;;;;18.84;67.48;100442.50;1757616;81;25794;-73
2021/08/23 07:02:04;;;;;;;5.87;5.30;;;;;;;18.88;67.41;100437.88;1757924;81;25763;-73
2021/08/23 07:04:30;;;;;;;7.50;5.42;;;;;;;18.95;67.10;100450.92;1757954;81;25723;-73
2021/08/23 07:06:57;;;;;;;6.20;5.28;;;;;;;18.98;67.14;100449.63;1757453;81;25742;-73
2021/08/23 07:09:23;;;;;;;7.15;5.30;;;;;;;19.06;67.17;100449.78;1767869;80;27510;-74
2021/08/23 07:11:50;;;;;;;7.72;5.58;;;;;;;19.08;66.74;100450.98;1778595;80;25775;-73
2021/08/23 07:14:16;;;;;;;6.97;5.42;;;;;;;19.12;66.75;100443.64;1754281;81;25709;-71
2021/08/23 07:16:42;;;;;;;7.85;5.55;;;;;;;19.17;66.75;100449.38;1757582;81;26393;-71
2021/08/23 07:19:09;;;;;;;8.63;6.03;;;;;;;19.22;66.80;100443.60;1750854;80;25712;-73
2021/08/23 07:21:35;;;;;;;9.43;5.40;;;;;;;19.26;66.46;100439.55;1721234;81;28020;-74
2021/08/23 07:24:01;;;;;;;7.83;5.53;;;;;;;19.32;66.73;100443.59;1750723;81;25736;-74
2021/08/23 07:26:28;;;;;;;5.55;5.05;;;;;;;19.41;66.68;100444.95;1750952;81;25673;-71
2021/08/23 07:28:54;;;;;;;8.78;5.70;;;;;;;19.48;66.64;100440.16;1750961;81;26299;-70
2021/08/23 07:31:21;;;;;;;6.42;4.90;;;;;;;19.56;66.77;100434.20;1750813;81;25745;-72
2021/08/23 07:33:48;;;;;;;5.87;5.08;;;;;;;19.67;66.57;100433.02;1750973;81;28098;-74
2021/08/23 07:36:15;;;;;;;7.95;5.50;;;;;;;19.76;66.45;100439.07;1751010;81;25753;-71
2021/08/23 07:38:41;;;;;;;8.70;5.67;;;;;;;19.86;66.52;100434.33;1750675;81;25681;-70
2021/08/23 07:41:07;;;;;;;5.75;5.17;;;;;;;19.98;66.04;100440.78;1750885;81;25824;-71
2021/08/23 07:43:33;;;;;;;5.90;5.22;;;;;;;20.00;65.74;100437.87;1750978;81;26402;-70
2021/08/23 07:46:00;;;;;;;6.70;5.67;;;;;;;20.09;66.13;100451.33;1750537;81;27403;-73
2021/08/23 07:48:26;;;;;;;7.28;5.03;;;;;;;20.20;65.89;100450.13;1750921;81;25686;-67
2021/08/23 07:50:53;;;;;;;8.08;5.65;;;;;;;20.25;65.20;100456.67;1721817;81;25662;-78
2021/08/23 07:53:19;;;;;;;7.37;5.08;;;;;;;20.27;65.14;100461.20;1750766;81;25707;-73
2021/08/23 07:55:46;;;;;;;9.63;5.58;;;;;;;20.32;65.37;100455.39;1750949;81;25365;-72
2021/08/23 07:58:12;;;;;;;6.53;5.78;;;;;;;20.39;64.96;100447.24;1750989;81;27332;-74
2021/08/23 08:00:38;;;;;;;6.42;5.40;;;;;;;20.44;64.81;100453.00;1750677;81;26407;-73
2021/08/23 08:03:05;;;;;;;7.40;5.45;;;;;;;20.45;64.46;100451.26;1750892;81;25755;-74
2021/08/23 08:05:37;;;;;;;8.75;5.40;;;;;;;20.47;64.11;100454.42;1750828;81;25818;-73
2021/08/23 08:08:00;;;;;;;8.80;6.00;;;;;;;20.48;64.02;100449.70;1750275;81;25704;-73
2021/08/23 08:10:26;;;;;;;8.13;5.78;;;;;;;20.49;63.92;100451.30;1750955;81;29479;-73
2021/08/23 08:12:54;;;;;;;7.40;5.53;;;;;;;20.52;64.00;100454.69;1750725;81;27182;-75
2021/08/23 08:15:21;;;;;;;7.90;5.95;;;;;;;20.55;64.12;100455.31;1750678;81;25733;-75
2021/08/23 08:21:03;;;;;;;7.87;5.87;;;;;;;20.68;63.67;100461.38;1838057;77;25662;-77
2021/08/23 08:23:30;;;;;;;7.20;6.00;;;;;;;20.62;63.79;100463.67;1813362;79;25667;-77
2021/08/23 08:25:57;;;;;;;9.53;6.53;;;;;;;20.60;63.52;100463.23;1813365;79;27550;-73
2021/08/23 08:28:23;;;;;;;7.50;6.75;;;;;;;20.62;63.79;100469.70;1813133;79;25655;-76
2021/08/23 08:30:50;;;;;;;7.50;6.03;;;;;;;20.61;63.31;100468.14;1714841;82;25729;-73
2021/08/23 08:33:16;;;;;;;7.42;6.70;;;;;;;20.63;63.57;100469.95;1746518;82;27010;-73
2021/08/23 08:35:43;;;;;;;8.30;5.90;;;;;;;20.66;63.89;100471.37;1746502;82;25745;-74
2021/08/23 08:38:09;;;;;;;6.62;6.03;;;;;;;20.68;63.78;100470.41;1746567;82;27486;-73
2021/08/23 08:40:38;;;;;;;6.50;5.90;;;;;;;20.72;63.76;100480.07;1746455;82;25644;-78
2021/08/23 08:43:05;;;;;;;7.12;5.78;;;;;;;20.74;63.41;100472.27;1746497;82;25683;-79
2021/08/23 08:45:31;;;;;;;5.90;5.33;;;;;;;20.70;63.30;100477.72;1746384;82;25765;-77
2021/08/23 08:48:02;;;;;;;7.58;5.37;;;;;;;20.71;63.17;100479.88;1746550;82;25639;-87
2021/08/23 08:50:31;;;;;;;7.80;6.08;;;;;;;20.71;63.41;100485.38;1745094;82;27555;-80
2021/08/23 08:52:57;;;;;;;8.33;5.87;;;;;;;20.71;63.40;100482.62;1715150;83;26127;-79
2021/08/23 08:55:24;;;;;;;7.50;6.10;;;;;;;20.70;63.35;100482.41;1703533;84;25706;-77
2021/08/23 08:57:50;;;;;;;6.08;5.47;;;;;;;20.70;63.04;100484.59;1682908;85;26494;-61
2021/08/23 09:00:18;;;;;;;7.55;6.22;;;;;;;20.68;63.14;100488.86;1703176;84;25867;-59
2021/08/23 09:02:56;;;;;;;7.78;5.70;;;;;;;20.65;62.78;100490.42;1678312;84;27419;-60
2021/08/23 09:05:23;;;;;;;6.80;6.10;;;;;;;20.62;63.08;100482.91;1681494;85;25796;-60
2021/08/23 09:07:51;;;;;;;6.08;5.47;;;;;;;20.60;62.95;100482.47;1702053;84;25805;-60
2021/08/23 09:10:25;;;;;;;8.48;6.00;;;;;;;20.59;63.05;100485.59;1681783;85;26455;-59
2021/08/23 09:13:11;;;;;;;8.05;6.12;;;;;;;20.61;63.21;100491.50;1701847;84;25697;-59
2021/08/23 09:15:54;;;;;;;7.08;5.78;;;;;;;20.61;63.08;100488.16;1681652;85;28047;-61
2021/08/23 09:18:29;;;;;;;6.47;5.87;;;;;;;20.59;63.03;100485.59;1702059;84;26139;-60
2021/08/23 09:21:03;;;;;;;9.58;5.80;;;;;;;20.58;63.08;100490.86;1703898;83;25894;-60
2021/08/23 09:23:43;;;;;;;7.25;6.22;;;;;;;20.61;63.24;100487.38;1792383;80;26325;-62
2021/08/23 09:26:14;;;;;;;9.55;6.50;;;;;;;20.58;63.22;100482.03;1791804;79;25704;-62
2021/08/23 09:28:44;;;;;;;8.28;6.78;;;;;;;20.61;63.69;100494.24;1792367;79;28099;-62
2021/08/23 09:31:11;;;;;;;9.63;6.08;;;;;;;20.60;63.49;100481.09;1790550;79;25475;-59
2021/08/23 09:33:44;;;;;;;7.67;6.20;;;;;;;20.61;63.64;100490.12;1790574;79;26064;-58
2021/08/23 09:36:19;;;;;;;7.17;6.00;;;;;;;20.59;63.48;100489.70;1761447;79;25849;-58
2021/08/23 09:39:08;;;;;;;7.40;6.10;;;;;;;20.52;63.62;100495.31;1790672;79;25675;-58
2021/08/23 09:41:40;;;;;;;7.72;6.30;;;;;;;20.49;63.90;100490.55;1790673;79;27439;-58
2021/08/23 09:44:09;;;;;;;9.75;6.15;;;;;;;20.46;63.98;100494.03;1708194;83;26489;-58
2021/08/23 09:46:38;;;;;;;8.23;6.87;;;;;;;20.43;64.16;100498.92;1791553;80;25741;-58
2021/08/23 09:49:08;;;;;;;8.28;6.70;;;;;;;20.41;64.47;100490.83;1789159;79;25541;-59
2021/08/23 09:51:41;;;;;;;7.97;6.37;;;;;;;20.38;64.32;100491.00;1788587;80;25597;-58
2021/08/23 09:54:14;;;;;;;9.55;6.65;;;;;;;20.38;64.23;100496.50;1787966;79;28329;-59
2021/08/23 09:56:48;;;;;;;7.85;6.47;;;;;;;20.33;64.29;100495.44;1787808;80;25673;-59
2021/08/23 09:59:21;;;;;;;8.58;7.67;;;;;;;20.31;64.21;100491.69;1787371;79;26190;-59
2021/08/23 10:01:52;;;;;;;8.60;7.70;;;;;;;20.28;64.52;100493.80;1788443;80;25799;-59
2021/08/23 10:04:20;;;;;;;8.58;7.33;;;;;;;20.25;64.58;100499.24;1790675;79;25727;-60
2021/08/23 10:06:49;;;;;;;9.73;6.97;;;;;;;20.21;65.03;100495.63;1793881;79;27449;-58
2021/08/23 10:09:25;;;;;;;7.80;6.45;;;;;;;20.18;65.25;100490.90;1808572;79;25771;-58
2021/08/23 10:11:54;;;;;;;7.08;6.20;;;;;;;20.12;65.22;100490.41;1808849;79;25681;-58
2021/08/23 10:14:21;;;;;;;12.28;6.95;;;;;;;20.11;65.51;100488.25;1808950;79;25755;-58
2021/08/23 10:16:49;;;;;;;11.40;7.08;;;;;;;20.13;65.89;100491.41;1808623;79;25759;-60
2021/08/23 10:19:15;;;;;;;8.00;6.60;;;;;;;20.15;66.26;100489.67;1802657;79;27473;-66
2021/08/23 10:21:45;;;;;;;7.58;6.85;;;;;;;20.14;66.34;100486.14;1784578;79;25710;-69
2021/08/23 10:24:17;;;;;;;8.45;6.72;;;;;;;20.14;66.64;100493.56;1748454;79;26443;-67
2021/08/23 10:26:46;;;;;;;10.82;7.42;;;;;;;20.11;66.50;100492.95;1801078;79;25804;-69
2021/08/23 10:29:15;;;;;;;9.58;7.67;;;;;;;20.09;66.82;100488.39;1713825;82;25953;-69
2021/08/23 10:31:44;;;;;;;11.00;7.83;;;;;;;20.06;66.65;100495.42;1803760;78;27449;-69
2021/08/23 10:34:21;;;;;;;8.45;7.65;;;;;;;20.03;66.76;100487.14;1734419;82;26000;-70
2021/08/23 10:36:51;;;;;;;10.13;7.58;;;;;;;20.01;67.12;100488.09;1804009;79;25702;-69
2021/08/23 10:39:25;;;;;;;11.45;7.08;;;;;;;19.99;67.41;100482.97;1803511;79;25791;-67
2021/08/23 10:41:54;;;;;;;11.60;7.25;;;;;;;19.99;67.57;100489.83;1734685;82;25768;-69
2021/08/23 10:44:30;;;;;;;8.25;7.20;;;;;;;19.98;68.10;100486.86;1804549;78;27464;-68
2021/08/23 10:47:09;;;;;;;12.03;8.10;;;;;;;19.99;68.17;100492.58;1735689;82;25709;-69
2021/08/23 10:49:48;;;;;;;9.98;7.55;;;;;;;19.99;68.42;100483.53;1803446;78;25976;-70
2021/08/23 10:52:17;;;;;;;8.30;7.37;;;;;;;19.95;68.47;100488.97;1724377;82;25820;-71
2021/08/23 10:54:51;;;;;;;11.63;7.00;;;;;;;19.92;68.61;100489.70;1772066;78;25729;-68
2021/08/23 10:57:21;;;;;;;10.23;7.30;;;;;;;19.90;69.19;100485.97;1769260;80;27514;-68
2021/08/23 10:59:52;;;;;;;9.55;7.62;;;;;;;19.86;69.14;100483.73;1802221;79;25825;-69
2021/08/23 11:02:31;;;;;;;13.03;8.08;;;;;;;19.81;69.29;100479.92;1733352;82;25858;-70
2021/08/23 11:05:02;;;;;;;8.48;7.42;;;;;;;19.76;69.79;100489.25;1788870;79;25758;-69
2021/08/23 11:07:32;;;;;;;8.48;7.60;;;;;;;19.70;69.67;100485.22;1802788;79;25793;-68
2021/08/23 11:10:07;;;;;;;11.03;8.38;;;;;;;19.62;69.94;100482.13;1780555;79;28229;-72
2021/08/23 11:12:54;;;;;;;11.18;7.62;;;;;;;19.61;70.38;100483.28;1802330;79;25707;-71
2021/08/23 11:15:28;;;;;;;10.98;7.85;;;;;;;19.60;70.42;100489.35;1802066;79;26426;-72
2021/08/23 11:18:02;;;;;;;11.45;8.18;;;;;;;19.57;70.65;100481.84;1802918;79;25725;-72
2021/08/23 11:20:32;;;;;;;9.40;8.13;;;;;;;19.56;70.91;100484.95;1801455;79;26424;-72
2021/08/23 11:23:03;;;;;;;8.93;8.03;;;;;;;19.55;71.16;100478.69;1800668;79;27714;-71
2021/08/23 11:25:41;;;;;;;9.08;8.18;;;;;;;19.52;71.38;100478.63;1800533;79;25757;-72
2021/08/23 11:28:12;;;;;;;11.03;8.00;;;;;;;19.48;71.62;100478.56;1732187;82;25756;-72
2021/08/23 11:30:43;;;;;;;10.70;8.50;;;;;;;19.44;71.60;100470.05;1802405;79;25708;-72
2021/08/23 11:33:12;;;;;;;11.53;8.53;;;;;;;19.40;72.27;100472.73;1803909;79;25629;-72
2021/08/23 11:35:39;;;;;;;9.73;8.75;;;;;;;19.36;72.43;100471.89;1734859;82;28159;-71